createdAt,value
2022-10-21T00:02:09.001Z,5.47
2022-10-21T00:04:36.362Z,4.40
2022-10-21T00:07:09.828Z,5.50
2022-10-21T00:09:37.016Z,3.28
2022-10-21T00:12:10.763Z,3.97
2022-10-21T00:14:38.228Z,5.70
2022-10-21T00:17:11.703Z,4.60
2022-10-21T00:19:40.368Z,5.68
2022-10-21T00:22:13.789Z,4.30
2022-10-21T00:24:47.765Z,5.10
2022-10-21T00:27:28.095Z,4.20
2022-10-21T00:29:55.251Z,4.13
2022-10-21T00:32:28.919Z,4.72
2022-10-21T00:34:56.009Z,4.78
2022-10-21T00:37:29.843Z,3.72
2022-10-21T00:39:57.315Z,2.53
2022-10-21T00:42:45.514Z,4.03
2022-10-21T00:45:26.115Z,4.63
2022-10-21T00:48:18.794Z,3.30
2022-10-21T00:51:03.271Z,4.03
2022-10-21T00:53:38.798Z,3.67
2022-10-21T00:56:16.370Z,3.30
2022-10-21T00:58:52.813Z,4.30
2022-10-21T01:01:21.705Z,4.00
2022-10-21T01:03:57.954Z,3.58
2022-10-21T01:06:26.710Z,4.50
2022-10-21T01:09:03.971Z,4.60
2022-10-21T01:11:36.513Z,6.72
2022-10-21T01:14:39.679Z,5.15
2022-10-21T01:17:26.433Z,4.68
2022-10-21T01:20:18.944Z,4.30
2022-10-21T01:23:11.139Z,4.30
2022-10-21T01:26:07.972Z,5.45
2022-10-21T01:28:57.018Z,5.03
2022-10-21T01:31:50.868Z,5.57
2022-10-21T01:34:42.120Z,5.78
2022-10-21T01:37:32.792Z,4.97
2022-10-21T01:40:12.313Z,5.13
2022-10-21T01:42:58.799Z,4.35
2022-10-21T01:45:42.167Z,3.55
2022-10-21T01:48:21.617Z,5.93
2022-10-21T01:50:58.967Z,4.32
2022-10-21T01:53:37.879Z,6.35
2022-10-21T01:56:05.458Z,4.10
2022-10-21T01:58:42.727Z,6.18
2022-10-21T02:01:13.763Z,4.68
2022-10-21T02:03:49.942Z,4.72
2022-10-21T02:06:18.626Z,6.78
2022-10-21T02:08:53.088Z,5.88
2022-10-21T02:11:20.593Z,4.55
2022-10-21T02:13:57.784Z,4.03
2022-10-21T02:16:30.222Z,6.20
2022-10-21T02:19:07.296Z,8.10
2022-10-21T02:21:37.150Z,4.93
2022-10-21T02:24:36.996Z,3.67
2022-10-21T02:27:04.500Z,6.30
2022-10-21T02:29:45.827Z,6.63
2022-10-21T02:32:35.373Z,7.20
2022-10-21T02:35:51.006Z,5.80
2022-10-21T02:38:27.734Z,6.82
2022-10-21T02:41:21.042Z,6.35
2022-10-21T02:43:57.087Z,11.15
2022-10-21T02:46:31.810Z,12.88
2022-10-21T02:48:59.094Z,10.07
2022-10-21T02:51:26.800Z,10.48
2022-10-21T02:54:00.857Z,7.72
2022-10-21T02:56:34.766Z,10.70
2022-10-21T02:59:11.086Z,10.07
2022-10-21T03:01:39.384Z,9.60
2022-10-21T03:04:06.622Z,8.18
2022-10-21T03:06:41.180Z,7.15
2022-10-21T03:09:08.528Z,6.53
2022-10-21T03:11:43.759Z,7.35
2022-10-21T03:14:11.211Z,5.25
2022-10-21T03:16:45.317Z,7.22
2022-10-21T03:19:13.559Z,7.00
2022-10-21T03:21:47.805Z,4.95
2022-10-21T03:24:28.608Z,6.87
2022-10-21T03:27:03.724Z,6.07
2022-10-21T03:29:30.935Z,5.70
2022-10-21T03:32:04.950Z,5.15
2022-10-21T03:34:32.134Z,5.18
2022-10-21T03:37:06.335Z,7.32
2022-10-21T03:39:39.794Z,4.90
2022-10-21T03:42:07.245Z,6.15
2022-10-21T03:44:34.500Z,6.53
2022-10-21T03:47:09.000Z,6.85
2022-10-21T03:49:36.478Z,7.82
2022-10-21T03:52:09.764Z,7.80
2022-10-21T03:54:37.260Z,6.55
2022-10-21T03:57:04.719Z,7.25
2022-10-21T03:59:38.826Z,7.43
2022-10-21T04:02:06.243Z,11.18
2022-10-21T04:04:39.864Z,10.18
2022-10-21T04:07:13.769Z,9.27
2022-10-21T04:09:40.961Z,8.38
2022-10-21T04:12:08.401Z,12.55
2022-10-21T04:14:42.736Z,7.95
2022-10-21T04:17:10.209Z,11.68
2022-10-21T04:19:37.385Z,9.18
2022-10-21T04:22:10.755Z,6.60
2022-10-21T04:24:45.233Z,6.80
2022-10-21T04:27:18.759Z,7.28
2022-10-21T04:29:52.850Z,6.68
2022-10-21T04:32:20.320Z,8.02
2022-10-21T04:34:53.990Z,6.60
2022-10-21T04:37:21.575Z,5.35
2022-10-21T04:39:55.766Z,6.65
2022-10-21T04:42:23.466Z,6.43
2022-10-21T04:44:50.846Z,6.90
2022-10-21T04:47:25.146Z,9.18
2022-10-21T04:49:58.700Z,6.60
2022-10-21T04:52:32.865Z,5.97
2022-10-21T04:55:00.179Z,6.93
2022-10-21T04:57:27.601Z,5.80
2022-10-21T05:00:01.783Z,5.18
2022-10-21T05:02:36.037Z,6.87
2022-10-21T05:05:03.463Z,6.28
2022-10-21T05:07:36.729Z,8.73
2022-10-21T05:10:04.138Z,6.95
2022-10-21T05:12:37.869Z,5.85
2022-10-21T05:15:05.470Z,5.63
2022-10-21T05:17:40.534Z,5.22
2022-10-21T05:20:09.827Z,6.85
2022-10-21T05:22:44.020Z,6.50
2022-10-21T05:25:34.293Z,8.70
2022-10-21T05:28:02.527Z,8.75
2022-10-21T05:30:35.830Z,6.82
2022-10-21T05:33:03.298Z,6.22
2022-10-21T05:35:36.863Z,6.45
2022-10-21T05:38:05.523Z,8.40
2022-10-21T05:40:34.617Z,7.20
2022-10-21T05:43:08.907Z,7.05
2022-10-21T05:45:36.844Z,11.65
2022-10-21T05:48:07.168Z,6.70
2022-10-21T05:50:43.830Z,7.78
2022-10-21T05:53:11.169Z,5.63
2022-10-21T05:55:38.578Z,6.03
2022-10-21T05:58:13.029Z,5.20
2022-10-21T06:00:41.355Z,6.05
2022-10-21T06:03:08.809Z,6.13
2022-10-21T06:05:42.831Z,5.80
2022-10-21T06:08:10.269Z,6.75
2022-10-21T06:10:37.506Z,8.55
2022-10-21T06:13:11.999Z,5.57
2022-10-21T06:15:39.928Z,5.65
2022-10-21T06:18:07.418Z,6.03
2022-10-21T06:20:42.070Z,6.57
2022-10-21T06:23:09.789Z,5.32
2022-10-21T06:25:57.899Z,8.60
2022-10-21T06:28:31.910Z,7.65
2022-10-21T06:31:05.831Z,8.27
2022-10-21T06:33:35.824Z,7.22
2022-10-21T06:36:09.871Z,6.28
2022-10-21T06:38:38.239Z,6.05
2022-10-21T06:41:16.120Z,7.82
2022-10-21T06:43:43.800Z,6.63
2022-10-21T06:46:22.029Z,5.93
2022-10-21T06:48:56.049Z,10.75
2022-10-21T06:51:32.018Z,8.35
2022-10-21T06:54:06.874Z,8.90
2022-10-21T06:56:34.024Z,7.25
2022-10-21T06:59:02.480Z,8.73
2022-10-21T07:01:59.313Z,6.75
2022-10-21T07:04:33.984Z,7.65
2022-10-21T07:07:01.251Z,6.17
2022-10-21T07:09:34.961Z,6.63
2022-10-21T07:12:02.551Z,8.55
2022-10-21T07:14:36.859Z,7.38
2022-10-21T07:17:05.127Z,8.88
2022-10-21T07:19:40.261Z,11.30
2022-10-21T07:22:07.556Z,9.85
2022-10-21T07:24:42.945Z,8.73
2022-10-21T07:27:22.903Z,9.10
2022-10-21T07:29:50.285Z,7.15
2022-10-21T07:32:23.780Z,6.45
2022-10-21T07:34:51.016Z,7.28
2022-10-21T07:37:18.449Z,8.35
2022-10-21T07:39:51.759Z,6.70
2022-10-21T07:42:20.589Z,7.18
2022-10-21T07:44:50.981Z,10.27
2022-10-21T07:47:25.231Z,8.73
2022-10-21T07:49:53.339Z,9.50
2022-10-21T07:52:28.004Z,10.00
2022-10-21T07:54:55.272Z,8.60
2022-10-21T07:57:22.550Z,16.27
2022-10-21T07:59:55.979Z,18.67
2022-10-21T08:02:30.839Z,18.55
2022-10-21T08:04:58.239Z,14.75
2022-10-21T08:07:32.839Z,11.25
2022-10-21T08:10:00.348Z,11.20
2022-10-21T08:12:34.981Z,7.38
2022-10-21T08:15:02.199Z,7.57
2022-10-21T08:17:36.010Z,7.82
2022-10-21T08:20:03.990Z,7.65
2022-10-21T08:22:31.117Z,8.32
2022-10-21T08:25:04.943Z,8.32
2022-10-21T08:27:45.845Z,7.78
2022-10-21T08:30:19.927Z,6.97
2022-10-21T08:32:47.558Z,8.82
2022-10-21T08:35:14.714Z,7.75
2022-10-21T08:37:48.896Z,8.13
2022-10-21T08:40:23.722Z,6.63
2022-10-21T08:42:57.959Z,9.45
2022-10-21T08:45:49.539Z,8.70
2022-10-21T08:48:28.898Z,10.60
2022-10-21T08:51:04.898Z,9.20
2022-10-21T08:53:45.523Z,7.80
2022-10-21T08:58:53.108Z,8.10
2022-10-21T09:01:41.926Z,6.57
2022-10-21T09:04:24.105Z,8.98
2022-10-21T09:07:16.923Z,7.22
2022-10-21T09:10:16.096Z,6.93
2022-10-21T09:13:14.841Z,7.43
2022-10-21T09:16:16.896Z,8.40
2022-10-21T09:19:16.287Z,9.90
2022-10-21T09:22:29.950Z,10.85
2022-10-21T09:25:39.976Z,6.57
2022-10-21T09:28:14.690Z,7.82
2022-10-21T09:30:50.889Z,8.60
2022-10-21T09:33:27.391Z,10.05
2022-10-21T09:36:08.955Z,8.15
2022-10-21T09:39:13.884Z,7.97
2022-10-21T09:41:50.231Z,9.35
2022-10-21T09:44:27.042Z,9.73
2022-10-21T09:46:54.453Z,7.93
2022-10-21T09:50:05.233Z,8.18
2022-10-21T09:52:36.021Z,8.75
2022-10-21T09:55:04.516Z,10.57
2022-10-21T09:58:04.817Z,5.47
2022-10-21T10:00:49.368Z,7.10
2022-10-21T10:03:53.958Z,8.45
2022-10-21T10:06:37.432Z,7.55
2022-10-21T10:09:21.038Z,7.75
2022-10-21T10:11:54.912Z,6.53
2022-10-21T10:14:49.960Z,7.30
2022-10-21T10:17:33.174Z,7.20
2022-10-21T10:20:06.992Z,10.90
2022-10-21T10:23:04.898Z,7.15
2022-10-21T10:25:53.888Z,9.90
2022-10-21T10:28:33.720Z,9.77
2022-10-21T10:31:01.172Z,9.48
2022-10-21T10:33:41.887Z,7.38
2022-10-21T10:36:19.984Z,7.10
2022-10-21T10:39:02.152Z,13.13
2022-10-21T10:41:37.262Z,9.45
2022-10-21T10:47:08.242Z,8.55
2022-10-21T10:49:46.948Z,10.00
2022-10-21T10:52:22.150Z,7.80
2022-10-21T10:55:16.129Z,7.35
2022-10-21T10:57:58.817Z,9.88
2022-10-21T11:00:33.952Z,8.18
2022-10-21T11:03:10.242Z,10.10
2022-10-21T11:05:57.938Z,9.65
2022-10-21T11:08:34.303Z,12.65
2022-10-21T11:11:11.951Z,7.22
2022-10-21T11:13:46.944Z,10.98
2022-10-21T11:19:23.900Z,11.23
2022-10-21T11:21:55.887Z,9.88
2022-10-21T11:25:12.042Z,9.93
2022-10-21T11:27:52.395Z,8.82
2022-10-21T11:30:31.011Z,10.50
2022-10-21T11:33:23.941Z,12.88
2022-10-21T11:35:59.206Z,11.60
2022-10-21T11:38:53.976Z,11.50
2022-10-21T11:41:41.876Z,11.40
2022-10-21T11:44:20.294Z,9.10
2022-10-21T11:47:24.895Z,7.32
2022-10-21T11:50:26.856Z,9.32
2022-10-21T11:53:18.912Z,14.95
2022-10-21T11:56:23.933Z,10.93
2022-10-21T11:59:06.538Z,8.88
2022-10-21T12:01:55.495Z,8.57
2022-10-21T12:04:31.114Z,10.43
2022-10-21T12:07:11.224Z,10.02
2022-10-21T12:09:49.559Z,11.23
2022-10-21T12:12:29.000Z,14.10
2022-10-21T12:15:04.894Z,9.93
2022-10-21T12:17:41.965Z,11.85
2022-10-21T12:20:27.995Z,9.93
2022-10-21T12:23:05.094Z,9.35
2022-10-21T12:25:59.921Z,11.50
2022-10-21T12:29:20.856Z,10.05
2022-10-21T12:31:59.548Z,10.65
2022-10-21T12:34:27.479Z,8.82
2022-10-21T12:36:55.214Z,6.80
2022-10-21T12:39:40.916Z,7.88
2022-10-21T12:42:15.716Z,7.80
2022-10-21T12:44:57.988Z,8.43
2022-10-21T12:47:29.750Z,5.78
2022-10-21T12:50:21.941Z,9.23
2022-10-21T12:53:09.473Z,13.50
2022-10-21T12:55:47.850Z,7.20
2022-10-21T12:58:39.046Z,6.95
2022-10-21T13:01:33.947Z,6.88
2022-10-21T13:04:07.926Z,8.77
2022-10-21T13:07:02.006Z,7.50
2022-10-21T13:09:35.742Z,5.82
2022-10-21T13:12:19.988Z,6.70
2022-10-21T13:14:56.467Z,6.22
2022-10-21T13:17:29.862Z,5.65
2022-10-21T13:20:15.528Z,7.55
2022-10-21T13:23:05.951Z,6.15
2022-10-21T13:25:41.898Z,4.97
2022-10-21T13:28:15.709Z,7.57
2022-10-21T13:30:55.892Z,5.55
2022-10-21T13:33:33.832Z,4.63
2022-10-21T13:36:17.380Z,4.80
2022-10-21T13:38:53.017Z,5.57
2022-10-21T13:41:34.921Z,5.78
2022-10-21T13:44:05.962Z,6.93
2022-10-21T13:46:47.969Z,4.05
2022-10-21T13:49:30.062Z,6.70
2022-10-21T13:52:03.881Z,6.40
2022-10-21T13:54:35.545Z,6.85
2022-10-21T13:57:17.903Z,6.22
2022-10-21T13:59:45.093Z,4.57
2022-10-21T14:02:32.968Z,5.55
2022-10-21T14:05:00.131Z,8.70
2022-10-21T14:07:34.916Z,7.43
2022-10-21T14:10:03.096Z,5.32
2022-10-21T14:12:42.148Z,7.05
2022-10-21T14:15:22.231Z,6.88
2022-10-21T14:18:05.149Z,5.55
2022-10-21T14:20:36.459Z,6.80
2022-10-21T14:23:14.011Z,5.45
2022-10-21T14:25:49.747Z,6.20
2022-10-21T14:28:31.054Z,6.82
2022-10-21T14:30:59.167Z,6.22
2022-10-21T14:33:36.419Z,6.45
2022-10-21T14:36:15.412Z,6.28
2022-10-21T14:39:06.292Z,6.50
2022-10-21T14:41:37.610Z,7.30
2022-10-21T14:44:32.931Z,11.73
2022-10-21T14:47:00.990Z,6.80
2022-10-21T14:49:46.120Z,6.22
2022-10-21T14:52:27.240Z,7.63
2022-10-21T14:55:14.040Z,6.88
2022-10-21T14:57:43.947Z,7.70
2022-10-21T15:00:48.898Z,6.18
2022-10-21T15:03:16.354Z,5.88
2022-10-21T15:05:49.016Z,5.13
2022-10-21T15:08:36.390Z,7.15
2022-10-21T15:11:13.088Z,8.55
2022-10-21T15:13:57.078Z,7.47
2022-10-21T15:19:12.934Z,6.05
2022-10-21T15:22:03.936Z,5.38
2022-10-21T15:24:49.354Z,6.15
2022-10-21T15:30:22.800Z,5.93
2022-10-21T15:32:51.080Z,5.80
2022-10-21T15:35:30.044Z,5.40
2022-10-21T15:38:04.083Z,5.43
2022-10-21T15:40:33.368Z,5.57
2022-10-21T15:43:01.335Z,4.75
2022-10-21T15:45:34.925Z,4.78
2022-10-21T15:48:02.599Z,4.72
2022-10-21T15:50:37.034Z,6.57
2022-10-21T15:53:10.900Z,5.50
2022-10-21T15:55:38.865Z,5.53
2022-10-21T15:58:13.004Z,4.70
2022-10-21T16:00:41.089Z,4.43
2022-10-21T16:03:15.953Z,5.68
2022-10-21T16:05:50.010Z,4.45
2022-10-21T16:08:17.180Z,6.70
2022-10-21T16:10:54.883Z,4.93
2022-10-21T16:13:22.326Z,6.47
2022-10-21T16:16:03.332Z,5.53
2022-10-21T16:18:39.168Z,6.35
2022-10-21T16:21:22.882Z,5.55
2022-10-21T16:24:00.504Z,4.63
2022-10-21T16:26:48.170Z,5.15
2022-10-21T16:29:31.300Z,4.32
2022-10-21T16:32:04.879Z,5.22
2022-10-21T16:34:39.976Z,5.25
2022-10-21T16:39:55.904Z,7.18
2022-10-21T16:42:25.530Z,6.30
2022-10-21T16:44:54.252Z,6.10
2022-10-21T16:47:29.021Z,5.10
2022-10-21T16:50:00.810Z,6.85
2022-10-21T16:52:28.466Z,7.25
2022-10-21T16:55:03.972Z,8.55
2022-10-21T16:57:38.341Z,5.75
2022-10-21T17:00:12.937Z,5.85
2022-10-21T17:02:47.871Z,9.10
2022-10-21T17:05:22.095Z,8.02
2022-10-21T17:07:58.907Z,8.40
2022-10-21T17:10:26.217Z,9.75
2022-10-21T17:13:05.945Z,10.95
2022-10-21T17:15:33.406Z,11.23
2022-10-21T17:18:10.667Z,11.30
2022-10-21T17:20:40.475Z,10.68
2022-10-21T17:23:14.035Z,12.25
2022-10-21T17:26:01.020Z,11.90
2022-10-21T17:28:38.166Z,11.52
2022-10-21T17:31:05.589Z,10.05
2022-10-21T17:33:32.771Z,11.93
2022-10-21T17:36:06.995Z,9.73
2022-10-21T17:38:34.673Z,8.97
2022-10-21T17:41:01.995Z,11.73
2022-10-21T17:43:35.942Z,10.05
2022-10-21T17:46:03.803Z,11.45
2022-10-21T17:48:39.333Z,9.05
2022-10-21T17:51:13.173Z,9.73
2022-10-21T17:53:40.514Z,9.68
2022-10-21T17:56:14.994Z,10.50
2022-10-21T17:58:49.204Z,11.73
2022-10-21T18:01:16.674Z,9.33
2022-10-21T18:03:51.383Z,11.48
2022-10-21T18:06:25.125Z,17.25
2022-10-21T18:08:52.485Z,12.90
2022-10-21T18:11:21.375Z,15.65
2022-10-21T18:13:56.260Z,16.80
2022-10-21T18:16:24.364Z,17.75
2022-10-21T18:18:52.836Z,20.35
2022-10-21T18:21:29.083Z,20.58
2022-10-21T18:23:56.786Z,20.60
2022-10-21T18:26:45.135Z,21.95
2022-10-21T18:29:19.413Z,21.25
2022-10-21T18:31:46.809Z,28.20
2022-10-21T18:34:14.478Z,17.60
2022-10-21T18:39:17.834Z,17.83
2022-10-21T18:41:45.724Z,17.85
2022-10-21T18:44:21.004Z,18.27
2022-10-21T18:46:50.185Z,16.85
2022-10-21T18:49:20.233Z,16.42
2022-10-21T18:51:54.064Z,16.85
2022-10-21T18:54:21.755Z,18.13
2022-10-21T18:56:56.098Z,12.73
2022-10-21T18:59:23.639Z,12.52
2022-10-21T19:02:00.343Z,13.02
2022-10-21T19:04:27.634Z,11.52
2022-10-21T19:06:54.974Z,14.70
2022-10-21T19:09:33.094Z,13.55
2022-10-21T19:12:11.969Z,12.32
2022-10-21T19:14:40.884Z,11.73
2022-10-21T19:17:08.176Z,12.55
2022-10-21T19:19:42.190Z,14.52
2022-10-21T19:22:09.706Z,13.88
2022-10-21T19:24:43.964Z,9.00
2022-10-21T19:27:31.073Z,13.70
2022-10-21T19:30:05.165Z,12.20
2022-10-21T19:32:32.454Z,11.40
2022-10-21T19:35:06.151Z,11.80
2022-10-21T19:37:35.905Z,10.30
2022-10-21T19:40:10.117Z,9.75
2022-10-21T19:42:44.293Z,8.97
2022-10-21T19:45:22.309Z,11.00
2022-10-21T19:47:57.179Z,11.18
2022-10-21T19:50:24.445Z,8.40
2022-10-21T19:52:51.593Z,12.27
2022-10-21T19:55:26.149Z,9.90
2022-10-21T19:57:53.544Z,10.52
2022-10-21T20:00:26.942Z,12.85
2022-10-21T20:02:54.174Z,9.15
2022-10-21T20:05:28.119Z,8.35
2022-10-21T20:08:02.111Z,10.05
2022-10-21T20:10:29.549Z,10.40
2022-10-21T20:13:03.124Z,10.15
2022-10-21T20:15:30.434Z,15.00
2022-10-21T20:17:58.994Z,12.10
2022-10-21T20:20:33.193Z,14.10
2022-10-21T20:23:07.067Z,9.77
2022-10-21T20:26:10.054Z,10.68
2022-10-21T20:28:37.893Z,11.20
2022-10-21T20:31:18.017Z,10.15
2022-10-21T20:33:55.289Z,10.25
2022-10-21T20:36:32.787Z,10.63
2022-10-21T20:39:08.086Z,12.68
2022-10-21T20:41:44.102Z,11.48
2022-10-21T20:44:16.567Z,12.10
2022-10-21T20:46:52.042Z,10.15
2022-10-21T20:49:19.651Z,9.85
2022-10-21T20:51:46.818Z,9.82
2022-10-21T20:54:25.938Z,10.07
2022-10-21T20:56:53.631Z,10.48
2022-10-21T20:59:20.889Z,9.80
2022-10-21T21:01:55.197Z,9.75
2022-10-21T21:04:30.951Z,8.32
2022-10-21T21:06:59.788Z,12.00
2022-10-21T21:09:50.266Z,8.43
2022-10-21T21:12:21.100Z,9.88
2022-10-21T21:14:48.264Z,7.88
2022-10-21T21:17:22.190Z,8.52
2022-10-21T21:19:49.613Z,9.07
2022-10-21T21:22:16.839Z,8.73
2022-10-21T21:24:51.101Z,7.80
2022-10-21T21:27:39.590Z,7.93
2022-10-21T21:30:07.394Z,10.35
2022-10-21T21:32:41.113Z,8.27
2022-10-21T21:35:09.237Z,6.55
2022-10-21T21:37:36.299Z,7.10
2022-10-21T21:40:09.961Z,7.93
2022-10-21T21:42:37.094Z,6.88
2022-10-21T21:45:04.836Z,7.03
2022-10-21T21:47:38.967Z,8.52
2022-10-21T21:50:06.791Z,8.70
2022-10-21T21:52:41.045Z,6.82
2022-10-21T21:55:08.596Z,7.43
2022-10-21T21:57:42.047Z,9.57
2022-10-21T22:00:10.342Z,12.13
2022-10-21T22:02:37.629Z,11.45
2022-10-21T22:05:13.055Z,8.80
2022-10-21T22:07:40.731Z,9.00
2022-10-21T22:10:08.471Z,8.27
2022-10-21T22:12:42.087Z,7.63
2022-10-21T22:15:13.669Z,7.35
2022-10-21T22:17:56.056Z,8.02
2022-10-21T22:20:23.323Z,6.38
2022-10-21T22:22:50.518Z,7.15
2022-10-21T22:25:24.983Z,7.93
2022-10-21T22:28:06.017Z,8.27
2022-10-21T22:30:40.137Z,9.23
2022-10-21T22:33:07.384Z,6.82
2022-10-21T22:35:35.108Z,8.43
2022-10-21T22:38:08.996Z,7.22
2022-10-21T22:40:36.335Z,9.63
2022-10-21T22:43:03.671Z,8.88
2022-10-21T22:45:39.041Z,6.38
2022-10-21T22:48:06.376Z,9.32
2022-10-21T22:50:33.567Z,7.28
2022-10-21T22:53:07.537Z,9.80
2022-10-21T22:55:34.797Z,8.23
2022-10-21T22:58:01.993Z,9.25
2022-10-21T23:00:35.981Z,7.97
2022-10-21T23:03:07.375Z,8.00
2022-10-21T23:05:43.066Z,7.65
2022-10-21T23:08:12.382Z,7.07
2022-10-21T23:10:39.654Z,9.77
2022-10-21T23:13:13.045Z,7.40
2022-10-21T23:15:40.153Z,9.13
2022-10-21T23:18:14.314Z,7.35
2022-10-21T23:20:42.050Z,8.63
2022-10-21T23:23:18.088Z,8.93
2022-10-21T23:25:52.192Z,7.90
2022-10-21T23:28:32.041Z,9.20
2022-10-21T23:30:59.876Z,9.02
2022-10-21T23:33:34.082Z,11.38
2022-10-21T23:36:01.751Z,7.73
2022-10-21T23:38:36.006Z,8.27
2022-10-21T23:41:10.111Z,6.30
2022-10-21T23:43:37.711Z,6.10
2022-10-21T23:46:13.127Z,6.60
2022-10-21T23:48:40.917Z,9.45
2022-10-21T23:51:15.115Z,8.02
2022-10-21T23:53:43.565Z,6.40
2022-10-21T23:56:10.869Z,8.48
2022-10-21T23:58:45.091Z,8.35
